Time;durP1;ratioP1;P1;durP2;ratioP2;P2;SDS_P1;SDS_P2;PMS_P1;PMS_P2;Temp;Humidity;BMP_temperature;BMP_pressure;BME280_temperature;BME280_humidity;BME280_pressure;Samples;Min_cycle;Max_cycle;Signal;HPM_P1;HPM_P2
2021/12/21 00:00:29;;;;;;;13.18;10.70;;;;;;;-1.91;85.31;100208.81;4986227;28;20184;-87
2021/12/21 00:02:55;;;;;;;16.40;10.43;;;;;;;-1.93;85.48;100202.81;4980381;28;20207;-86
2021/12/21 00:05:25;;;;;;;19.07;11.33;;;;;;;-1.96;85.05;100215.69;4970515;28;20400;-85
2021/12/21 00:07:53;;;;;;;15.55;11.40;;;;;;;-2.07;85.01;100193.41;4973277;28;20232;-86
2021/12/21 00:10:23;;;;;;;12.68;9.35;;;;;;;-2.17;85.18;100202.00;4973006;28;20220;-88
2021/12/21 00:13:02;;;;;;;14.55;10.65;;;;;;;-2.19;85.52;100205.44;4973591;28;20236;-87
2021/12/21 00:18:23;;;;;;;11.98;9.68;;;;;;;-2.17;85.63;100194.28;4973709;28;20342;-86
2021/12/21 00:23:30;;;;;;;11.43;8.63;;;;;;;-2.11;85.37;100203.72;4974424;28;20262;-86
2021/12/21 00:26:10;;;;;;;10.70;8.77;;;;;;;-2.16;85.57;100201.16;4974726;28;20285;-87
2021/12/21 00:29:21;;;;;;;12.52;8.20;;;;;;;-2.20;85.43;100199.44;4970355;28;20219;-85
2021/12/21 00:31:31;;;;;;;11.40;8.60;;;;;;;-2.22;85.23;100206.31;4969833;28;20743;-87
2021/12/21 00:33:57;;;;;;;8.50;6.30;;;;;;;-2.25;85.36;100191.72;4978876;28;20215;-87
2021/12/21 00:36:25;;;;;;;11.25;7.82;;;;;;;-2.34;85.39;100198.63;4977729;28;20208;-87
2021/12/21 00:38:52;;;;;;;12.70;8.57;;;;;;;-2.38;85.70;100202.06;4977838;28;20327;-89
2021/12/21 00:41:19;;;;;;;10.50;8.18;;;;;;;-2.42;85.64;100195.22;4969106;28;20204;-87
2021/12/21 00:43:45;;;;;;;9.85;7.63;;;;;;;-2.46;85.69;100210.66;4977420;28;20207;-88
2021/12/21 00:46:11;;;;;;;8.70;7.65;;;;;;;-2.50;85.65;100193.50;4974004;28;20199;-84
2021/12/21 00:48:41;;;;;;;10.63;7.60;;;;;;;-2.51;86.11;100203.78;4970511;28;20209;-86
2021/12/21 00:51:07;;;;;;;11.30;8.18;;;;;;;-2.50;86.14;100206.34;4976560;28;20239;-87
2021/12/21 00:53:37;;;;;;;9.68;7.15;;;;;;;-2.53;85.93;100200.38;4973561;28;20212;-87
2021/12/21 00:56:03;;;;;;;10.77;7.90;;;;;;;-2.50;86.21;100216.66;4970769;28;20215;-86
2021/12/21 00:58:29;;;;;;;9.70;8.70;;;;;;;-2.49;85.90;100205.50;4974247;28;20580;-87
2021/12/21 01:00:55;;;;;;;15.00;7.93;;;;;;;-2.53;85.71;100208.94;4971745;28;20298;-87
2021/12/21 01:03:21;;;;;;;9.98;8.02;;;;;;;-2.54;86.28;100196.06;4973506;28;20203;-87
2021/12/21 01:08:17;;;;;;;10.17;8.30;;;;;;;-2.59;86.17;100210.63;4972541;28;20230;-87
2021/12/21 01:13:43;;;;;;;11.88;8.50;;;;;;;-2.53;86.23;100211.50;4973029;28;20199;-86
2021/12/21 01:19:11;;;;;;;15.48;12.15;;;;;;;-2.58;86.42;100200.38;4971801;28;20207;-87
2021/12/21 01:21:44;;;;;;;13.23;10.48;;;;;;;-2.65;86.56;100201.22;4989198;28;20239;-87
2021/12/21 01:24:24;;;;;;;14.38;10.15;;;;;;;-2.65;86.74;100198.63;4984127;28;20204;-87
2021/12/21 01:27:02;;;;;;;14.07;10.43;;;;;;;-2.65;86.58;100195.22;4984225;28;20203;-87
2021/12/21 01:34:58;;;;;;;17.85;11.93;;;;;;;-2.69;86.84;100202.09;4993124;28;20459;-86
2021/12/21 01:37:41;;;;;;;15.48;10.50;;;;;;;-2.70;86.66;100211.53;4984869;28;20203;-88
2021/12/21 01:50:53;;;;;;;14.43;9.88;;;;;;;-2.75;86.29;100213.22;4971406;28;20605;-87
2021/12/21 01:53:19;;;;;;;10.88;8.82;;;;;;;-2.77;86.51;100203.81;4969104;28;20212;-87
2021/12/21 01:55:44;;;;;;;11.82;8.35;;;;;;;-2.80;86.34;100208.94;4993777;28;20203;-87
2021/12/21 01:58:10;;;;;;;12.37;10.60;;;;;;;-2.84;86.49;100184.94;4978228;28;20211;-87
2021/12/21 02:00:37;;;;;;;13.10;10.60;;;;;;;-2.90;86.45;100196.06;4971089;28;20892;-87
2021/12/21 02:03:03;;;;;;;11.27;9.80;;;;;;;-2.94;86.57;100201.22;4971453;28;20306;-87
2021/12/21 02:05:29;;;;;;;12.03;9.13;;;;;;;-2.98;86.48;100197.78;4974972;28;20310;-88
2021/12/21 02:07:54;;;;;;;9.40;8.23;;;;;;;-3.01;86.59;100199.50;4972115;28;20258;-87
2021/12/21 02:10:21;;;;;;;10.53;8.53;;;;;;;-3.04;86.32;100190.06;4971098;28;20540;-87
2021/12/21 02:12:46;;;;;;;12.43;7.97;;;;;;;-3.10;86.63;100192.66;4974577;28;20248;-87
2021/12/21 02:15:12;;;;;;;10.30;7.97;;;;;;;-3.15;86.38;100197.78;4971751;28;20270;-87
2021/12/21 02:20:21;;;;;;;10.93;6.65;;;;;;;-3.25;86.49;100195.19;4971373;28;20458;-87
2021/12/21 02:23:11;;;;;;;10.10;7.20;;;;;;;-3.31;86.42;100190.91;4969471;28;20615;-86
2021/12/21 02:25:56;;;;;;;9.45;6.45;;;;;;;-3.40;86.29;100202.00;4966255;28;20294;-87
2021/12/21 02:28:37;;;;;;;6.75;6.13;;;;;;;-3.46;86.46;100191.69;4966606;28;20242;-87
2021/12/21 02:31:03;;;;;;;7.75;6.57;;;;;;;-3.48;86.73;100197.69;4973415;28;20524;-87
2021/12/21 02:33:29;;;;;;;8.30;6.33;;;;;;;-3.53;86.44;100197.69;4970554;28;20458;-86
2021/12/21 02:35:57;;;;;;;10.80;6.30;;;;;;;-3.58;86.77;100196.81;4969939;28;20212;-87
2021/12/21 02:38:26;;;;;;;8.77;7.28;;;;;;;-3.64;86.94;100200.22;4972591;28;20468;-88
2021/12/21 02:40:52;;;;;;;26.98;7.28;;;;;;;-3.64;86.71;100204.50;4972405;28;20450;-87
2021/12/21 02:43:17;;;;;;;39.03;8.70;;;;;;;-3.64;86.67;100204.50;4975689;28;20210;-87
2021/12/21 02:45:43;;;;;;;7.77;6.33;;;;;;;-3.66;87.03;100201.06;4971908;28;20234;-87
2021/12/21 02:48:09;;;;;;;13.57;6.53;;;;;;;-3.68;86.89;100197.63;4974254;28;20200;-86
2021/12/21 02:50:36;;;;;;;15.20;5.87;;;;;;;-3.71;86.99;100203.59;4970396;28;20864;-87
2021/12/21 02:53:02;;;;;;;26.65;9.98;;;;;;;-3.76;86.79;100215.56;4972957;28;20216;-86
2021/12/21 02:55:28;;;;;;;10.52;6.45;;;;;;;-3.80;86.83;100208.72;4972368;28;20212;-87
2021/12/21 02:57:57;;;;;;;8.90;6.10;;;;;;;-3.84;87.13;100212.09;4977692;28;20217;-85
2021/12/21 03:00:27;;;;;;;8.95;6.20;;;;;;;-3.85;87.54;100208.69;4969344;28;20519;-86
2021/12/21 03:02:53;;;;;;;6.45;5.85;;;;;;;-3.85;87.59;100207.84;4970998;28;20203;-86
2021/12/21 03:05:19;;;;;;;24.60;8.30;;;;;;;-3.81;87.35;100210.44;4971181;28;20221;-86
2021/12/21 03:10:28;;;;;;;15.02;7.47;;;;;;;-3.78;87.40;100205.31;4974211;28;20231;-86
2021/12/21 03:15:25;;;;;;;25.67;8.40;;;;;;;-3.73;87.30;100199.31;4972644;28;20236;-86
2021/12/21 03:17:51;;;;;;;34.65;7.93;;;;;;;-3.74;87.20;100205.31;4979686;28;20201;-86
2021/12/21 03:20:17;;;;;;;14.05;6.85;;;;;;;-3.74;87.35;100200.19;4978534;28;20254;-86
2021/12/21 03:22:43;;;;;;;12.02;6.80;;;;;;;-3.72;87.46;100203.63;4979325;28;20199;-86
2021/12/21 03:25:09;;;;;;;7.73;6.60;;;;;;;-3.71;87.35;100211.31;4972091;28;20212;-85
2021/12/21 03:27:35;;;;;;;15.80;6.95;;;;;;;-3.69;87.73;100207.03;4985354;28;20462;-84
2021/12/21 03:30:01;;;;;;;7.83;7.03;;;;;;;-3.67;87.53;100213.06;4973387;28;20263;-86
2021/12/21 03:32:27;;;;;;;17.52;7.43;;;;;;;-3.62;87.55;100210.47;4973656;28;20232;-87
2021/12/21 03:34:52;;;;;;;12.67;7.00;;;;;;;-3.57;87.76;100199.38;4972088;28;20212;-86
2021/12/21 03:37:18;;;;;;;15.27;7.40;;;;;;;-3.48;88.01;100200.25;4970943;28;20620;-86
2021/12/21 03:39:45;;;;;;;8.10;6.73;;;;;;;-3.44;87.73;100199.41;4971771;28;20295;-86
2021/12/21 03:42:13;;;;;;;14.82;7.68;;;;;;;-3.38;87.26;100205.41;4974063;28;20201;-86
2021/12/21 03:44:39;;;;;;;17.42;6.93;;;;;;;-3.34;87.50;100207.16;4974236;28;20210;-86
2021/12/21 03:47:08;;;;;;;10.02;7.05;;;;;;;-3.29;87.47;100207.19;4973574;28;20258;-85
2021/12/21 03:52:13;;;;;;;13.32;8.73;;;;;;;-3.25;87.66;100210.59;4972355;28;20235;-86
2021/12/21 03:54:41;;;;;;;7.97;6.70;;;;;;;-3.22;87.46;100216.59;4981634;28;20703;-86
2021/12/21 03:57:07;;;;;;;13.30;9.45;;;;;;;-3.17;87.55;100219.19;4973741;28;20636;-85
2021/12/21 03:59:32;;;;;;;27.77;10.43;;;;;;;-3.14;88.03;100230.31;4996307;28;20206;-86
2021/12/21 04:01:58;;;;;;;33.00;9.10;;;;;;;-3.14;87.81;100217.47;4999231;28;20288;-86
2021/12/21 04:04:24;;;;;;;42.55;11.18;;;;;;;-3.13;87.75;100216.63;4989365;28;20222;-86
2021/12/21 04:06:53;;;;;;;12.55;8.05;;;;;;;-3.12;87.88;100210.63;4973612;28;20227;-86
2021/12/21 04:09:19;;;;;;;22.00;9.63;;;;;;;-3.09;87.74;100224.34;4973787;28;20216;-86
2021/12/21 04:11:45;;;;;;;20.00;10.43;;;;;;;-3.07;88.15;100220.06;4965393;28;20763;-86
2021/12/21 04:14:11;;;;;;;22.02;10.00;;;;;;;-3.07;88.20;100220.06;4966772;28;20983;-86
2021/12/21 04:16:37;;;;;;;35.88;10.35;;;;;;;-3.09;88.24;100222.63;4968779;28;20279;-86
2021/12/21 04:19:03;;;;;;;41.70;10.90;;;;;;;-3.07;88.33;100220.06;4967491;28;20733;-86
2021/12/21 04:21:30;;;;;;;9.20;8.20;;;;;;;-3.06;88.36;100214.91;4965814;28;20518;-86
2021/12/21 04:23:55;;;;;;;15.15;8.98;;;;;;;-3.05;88.78;100211.50;4966756;28;20315;-86
2021/12/21 04:26:21;;;;;;;14.93;7.90;;;;;;;-3.02;88.69;100211.50;4976186;28;20212;-86
2021/12/21 04:28:46;;;;;;;14.70;8.20;;;;;;;-2.99;88.47;100213.22;4967382;28;20208;-85
2021/12/21 04:31:13;;;;;;;46.83;12.90;;;;;;;-2.95;88.58;100202.91;4959893;28;20489;-86
2021/12/21 04:33:42;;;;;;;18.35;11.38;;;;;;;-2.94;88.70;100206.38;4967062;28;20546;-86
2021/12/21 04:36:08;;;;;;;14.90;8.57;;;;;;;-2.92;88.53;100200.38;4966841;28;20773;-87
2021/12/21 04:38:37;;;;;;;64.55;13.73;;;;;;;-2.87;88.64;100204.66;4967245;28;20296;-87
2021/12/21 04:41:14;;;;;;;17.27;9.32;;;;;;;-2.92;88.20;100192.66;4982889;28;20451;-87
2021/12/21 04:43:41;;;;;;;25.75;9.35;;;;;;;-2.96;88.33;100198.66;4969918;28;20563;-86
2021/12/21 04:46:07;;;;;;;32.28;9.52;;;;;;;-3.00;88.50;100202.06;4967061;28;20211;-86
2021/12/21 04:48:33;;;;;;;11.90;7.10;;;;;;;-3.02;88.33;100200.38;4969581;28;20203;-87
2021/12/21 04:50:59;;;;;;;10.30;8.70;;;;;;;-3.05;88.69;100201.22;4967029;28;20558;-86
2021/12/21 04:53:24;;;;;;;14.77;8.27;;;;;;;-3.06;89.06;100203.78;4969721;28;20463;-86
2021/12/21 04:55:51;;;;;;;10.87;7.57;;;;;;;-3.07;89.06;100209.78;4970110;28;20780;-86
2021/12/21 04:58:17;;;;;;;8.68;7.05;;;;;;;-3.11;89.08;100208.91;4970601;28;20207;-86
2021/12/21 05:00:43;;;;;;;21.83;10.20;;;;;;;-3.10;89.21;100210.63;4967697;28;20988;-86
2021/12/21 05:03:09;;;;;;;10.43;7.80;;;;;;;-3.07;89.09;100215.78;4975315;28;20527;-87
2021/12/21 05:05:35;;;;;;;10.27;8.55;;;;;;;-3.06;89.20;100212.34;4972727;28;20243;-87
2021/12/21 05:10:33;;;;;;;24.13;8.48;;;;;;;-3.02;89.18;100220.94;4975522;28;20199;-87
2021/12/21 05:12:59;;;;;;;11.02;8.02;;;;;;;-3.05;89.15;100218.31;4973655;28;20208;-86
2021/12/21 05:15:25;;;;;;;10.40;8.07;;;;;;;-3.06;89.10;100212.34;4976542;28;20243;-86
2021/12/21 05:17:50;;;;;;;18.80;8.43;;;;;;;-3.09;89.21;100211.50;4979193;28;20465;-86
2021/12/21 05:20:16;;;;;;;14.13;7.70;;;;;;;-3.07;89.43;100209.78;4992987;28;20209;-87
2021/12/21 05:22:42;;;;;;;9.17;7.80;;;;;;;-3.07;89.18;100202.06;4986724;28;20211;-87
2021/12/21 05:25:07;;;;;;;38.33;10.10;;;;;;;-3.08;89.23;100196.06;4986839;28;20403;-86
2021/12/21 05:27:33;;;;;;;17.17;8.43;;;;;;;-3.08;89.21;100206.34;4978839;28;20459;-87
2021/12/21 05:29:58;;;;;;;18.30;9.40;;;;;;;-3.07;89.41;100205.50;4973913;28;21444;-86
2021/12/21 05:32:24;;;;;;;16.40;12.27;;;;;;;-2.92;89.53;100204.63;4992664;28;20492;-86
2021/12/21 05:34:51;;;;;;;25.67;10.80;;;;;;;-2.95;89.05;100202.91;4974317;28;20300;-87
2021/12/21 05:37:25;;;;;;;8.37;6.90;;;;;;;-3.02;88.92;100206.38;4990700;28;20258;-86
2021/12/21 05:39:58;;;;;;;11.73;8.25;;;;;;;-3.07;89.24;100215.78;4978182;28;20200;-86
2021/12/21 05:42:27;;;;;;;22.40;9.65;;;;;;;-3.11;88.97;100211.47;5001814;28;20264;-86
2021/12/21 05:44:54;;;;;;;13.23;7.80;;;;;;;-3.13;89.01;100213.19;4998346;28;20208;-87
2021/12/21 05:47:20;;;;;;;27.70;9.77;;;;;;;-3.15;89.19;100213.19;5004485;28;20199;-86
2021/12/21 05:49:56;;;;;;;47.10;11.33;;;;;;;-3.18;88.98;100207.19;5004376;28;20254;-86
2021/12/21 05:52:23;;;;;;;7.70;6.72;;;;;;;-3.24;89.01;100217.44;4985656;28;20220;-85
2021/12/21 05:54:49;;;;;;;45.03;11.95;;;;;;;-3.29;88.95;100217.44;4975577;28;20234;-86
2021/12/21 05:57:15;;;;;;;15.07;9.67;;;;;;;-3.35;89.17;100215.72;4981334;28;20203;-85
2021/12/21 05:59:41;;;;;;;22.15;9.20;;;;;;;-3.41;89.43;100230.25;4974238;28;20458;-85
2021/12/21 06:02:06;;;;;;;52.53;15.77;;;;;;;-3.33;89.71;100221.69;4966384;28;20657;-84
2021/12/21 06:04:32;;;;;;;12.57;8.57;;;;;;;-3.33;89.63;100219.13;4975288;28;20232;-84
2021/12/21 06:06:57;;;;;;;12.13;9.27;;;;;;;-3.35;89.38;100218.28;4989811;28;20291;-86
2021/12/21 06:09:24;;;;;;;11.73;8.83;;;;;;;-3.34;89.30;100226.84;4983510;28;20204;-85
2021/12/21 06:22:59;;;;;;;17.05;7.88;;;;;;;-3.34;89.40;100247.41;4979000;28;20267;-85
2021/12/21 06:25:37;;;;;;;18.80;9.10;;;;;;;-3.35;89.56;100245.66;4975727;28;20619;-86
2021/12/21 06:28:11;;;;;;;58.63;12.90;;;;;;;-3.38;89.58;100243.94;4999107;28;20203;-85
2021/12/21 06:30:38;;;;;;;11.73;6.88;;;;;;;-3.37;89.59;100242.25;4994435;28;20486;-86
2021/12/21 06:33:07;;;;;;;9.25;7.50;;;;;;;-3.37;89.49;100239.69;4991820;28;20216;-86
2021/12/21 06:35:34;;;;;;;28.98;9.50;;;;;;;-3.39;89.50;100241.38;4994965;28;20199;-84
2021/12/21 06:38:00;;;;;;;41.53;10.68;;;;;;;-3.43;89.38;100240.53;4986824;28;20230;-85
2021/12/21 06:40:26;;;;;;;42.20;9.68;;;;;;;-3.51;89.32;100239.66;4979871;28;20215;-84
2021/12/21 06:42:53;;;;;;;11.30;6.47;;;;;;;-3.55;89.34;100235.34;4974946;28;20613;-84
2021/12/21 06:45:30;;;;;;;13.95;8.60;;;;;;;-3.54;89.56;100244.75;4984451;28;20299;-84
2021/12/21 06:53:26;;;;;;;52.83;16.92;;;;;;;-3.51;89.43;100239.66;4966907;28;20215;-85
2021/12/21 06:56:00;;;;;;;10.10;7.15;;;;;;;-3.54;89.62;100238.75;4985518;28;20208;-85
2021/12/21 06:58:26;;;;;;;30.05;9.15;;;;;;;-3.59;89.34;100241.34;4991630;28;20623;-85
2021/12/21 07:00:52;;;;;;;33.08;11.20;;;;;;;-3.64;89.72;100236.16;4970882;28;20550;-85
2021/12/21 07:03:28;;;;;;;15.98;8.23;;;;;;;-3.66;90.03;100240.44;4991300;28;20667;-85
2021/12/21 07:05:53;;;;;;;27.63;10.93;;;;;;;-3.63;90.07;100231.88;5011133;23;20196;-76
2021/12/21 07:08:25;;;;;;;56.47;12.70;;;;;;;-3.62;89.67;100236.16;4971683;28;20825;-76
2021/12/21 07:11:05;;;;;;;12.35;8.10;;;;;;;-3.59;89.90;100242.19;4960113;28;20581;-80
2021/12/21 07:18:59;;;;;;;8.50;6.78;;;;;;;-3.57;89.83;100234.47;4971723;28;20588;-79
2021/12/21 07:21:24;;;;;;;62.43;12.07;;;;;;;-3.53;89.77;100233.63;4975396;28;20652;-78
2021/12/21 07:23:51;;;;;;;18.10;9.20;;;;;;;-3.50;89.87;100235.38;4975183;28;20208;-79
2021/12/21 07:26:17;;;;;;;58.97;11.35;;;;;;;-3.52;89.61;100229.34;4993159;28;20200;-78
2021/12/21 07:28:43;;;;;;;12.30;7.43;;;;;;;-3.60;89.53;100219.91;4993724;28;20265;-76
2021/12/21 07:31:08;;;;;;;55.03;14.23;;;;;;;-3.59;89.56;100224.22;4993648;28;20471;-78
2021/12/21 07:33:34;;;;;;;45.43;11.90;;;;;;;-3.63;89.54;100217.34;4993855;28;20676;-75
2021/12/21 07:35:59;;;;;;;11.90;8.57;;;;;;;-3.62;89.45;100234.47;4994035;28;20310;-76
2021/12/21 07:38:26;;;;;;;34.67;9.90;;;;;;;-3.63;89.71;100225.03;4993014;28;20311;-76
2021/12/21 07:40:52;;;;;;;26.00;10.40;;;;;;;-3.61;89.82;100219.91;4994299;28;20234;-79
2021/12/21 07:43:17;;;;;;;49.33;10.20;;;;;;;-3.59;89.73;100215.66;4992961;28;20294;-77
2021/12/21 07:45:43;;;;;;;24.07;8.27;;;;;;;-3.63;89.48;100213.91;4978147;28;20234;-76
2021/12/21 07:48:08;;;;;;;29.37;8.17;;;;;;;-3.66;89.32;100224.16;4994264;28;20302;-76
2021/12/21 07:50:34;;;;;;;14.53;9.13;;;;;;;-3.68;89.89;100221.59;4995284;28;20552;-76
2021/12/21 07:53:01;;;;;;;18.73;7.27;;;;;;;-3.67;89.80;100227.56;4985302;28;20463;-80
2021/12/21 07:55:27;;;;;;;22.70;9.85;;;;;;;-3.69;89.65;100219.88;4993445;28;20235;-76
2021/12/21 07:57:52;;;;;;;10.67;6.70;;;;;;;-3.66;89.91;100225.03;4994320;28;20329;-76
2021/12/21 08:00:19;;;;;;;13.43;8.50;;;;;;;-3.60;90.00;100219.06;4992817;28;20326;-76
2021/12/21 08:02:45;;;;;;;10.70;7.63;;;;;;;-3.56;90.15;100216.50;4992576;28;20206;-79
2021/12/21 08:05:11;;;;;;;12.40;7.50;;;;;;;-3.52;89.64;100227.63;4993080;28;20199;-77
2021/12/21 08:07:46;;;;;;;11.90;8.48;;;;;;;-3.47;90.07;100225.94;4993470;28;20420;-76
2021/12/21 08:10:25;;;;;;;13.20;7.80;;;;;;;-3.38;89.72;100230.25;4994680;28;20209;-76
2021/12/21 08:12:51;;;;;;;9.93;7.10;;;;;;;-3.35;89.43;100225.13;4993469;28;20667;-78
2021/12/21 08:15:16;;;;;;;12.93;7.67;;;;;;;-3.33;89.76;100231.97;4991602;28;20226;-78
2021/12/21 08:17:42;;;;;;;31.83;10.43;;;;;;;-3.33;89.60;100224.28;4992891;28;20227;-77
2021/12/21 08:20:08;;;;;;;30.87;8.03;;;;;;;-3.36;89.17;100219.13;4992540;28;20211;-76
2021/12/21 08:22:33;;;;;;;15.60;7.80;;;;;;;-3.40;89.38;100226.84;4994186;28;20303;-78
2021/12/21 08:24:58;;;;;;;19.70;10.37;;;;;;;-3.45;89.00;100226.81;4994872;28;20457;-79
2021/12/21 08:27:24;;;;;;;11.30;8.13;;;;;;;-3.50;89.08;100231.06;4993336;28;20265;-79
2021/12/21 08:29:49;;;;;;;29.60;9.10;;;;;;;-3.53;89.49;100227.66;4989843;28;20233;-79
2021/12/21 08:32:15;;;;;;;39.55;13.55;;;;;;;-3.40;89.50;100231.97;4990377;28;20483;-75
2021/12/21 08:34:40;;;;;;;19.07;8.23;;;;;;;-3.43;89.46;100240.53;4991738;28;20227;-77
2021/12/21 08:37:06;;;;;;;14.63;8.57;;;;;;;-3.44;89.37;100235.38;4990711;28;20237;-75
2021/12/21 08:39:38;;;;;;;9.70;8.70;;;;;;;-3.40;89.43;100237.13;4992354;28;20527;-76
2021/12/21 08:42:06;;;;;;;9.52;7.88;;;;;;;-3.37;89.45;100240.53;4991690;28;20215;-80
2021/12/21 08:44:32;;;;;;;18.73;8.75;;;;;;;-3.30;89.68;100237.97;4991103;28;20402;-75
2021/12/21 08:46:58;;;;;;;16.63;9.60;;;;;;;-3.25;89.53;100238.84;4991193;28;20227;-76
2021/12/21 08:49:24;;;;;;;19.43;10.20;;;;;;;-3.23;89.30;100244.88;4992736;28;20238;-76
2021/12/21 08:51:50;;;;;;;13.98;10.43;;;;;;;-3.22;89.34;100246.56;4993098;28;20222;-78
2021/12/21 08:54:15;;;;;;;18.57;7.60;;;;;;;-3.20;89.16;100248.28;4992703;28;20294;-76
2021/12/21 08:56:41;;;;;;;9.70;7.30;;;;;;;-3.15;89.28;100245.75;4994182;28;20298;-76
2021/12/21 08:59:06;;;;;;;17.43;8.30;;;;;;;-3.15;88.96;100243.16;5050835;23;20491;-77
2021/12/21 09:01:32;;;;;;;20.55;10.13;;;;;;;-3.09;89.05;100245.75;4963017;28;20575;-75
2021/12/21 09:03:57;;;;;;;11.87;7.60;;;;;;;-3.10;88.92;100249.19;4968568;28;20951;-75
2021/12/21 09:06:24;;;;;;;12.80;9.73;;;;;;;-3.16;88.93;100251.72;4970077;28;20473;-76
2021/12/21 09:08:49;;;;;;;13.60;9.10;;;;;;;-3.16;89.01;100246.56;4975269;28;20239;-75
2021/12/21 09:11:15;;;;;;;26.53;8.70;;;;;;;-3.18;88.89;100245.75;4983764;28;20282;-75
2021/12/21 09:13:41;;;;;;;27.80;9.70;;;;;;;-3.20;88.83;100250.84;4978415;28;20659;-75
2021/12/21 09:16:06;;;;;;;13.93;7.43;;;;;;;-3.19;88.93;100256.84;4982826;28;20475;-75
2021/12/21 09:18:32;;;;;;;16.07;7.10;;;;;;;-3.18;88.76;100261.16;4983240;28;20234;-76
2021/12/21 09:20:57;;;;;;;15.37;9.43;;;;;;;-3.15;88.75;100261.16;4980431;28;20302;-76
2021/12/21 09:23:23;;;;;;;11.80;7.80;;;;;;;-3.11;88.85;100262.88;4983120;28;20707;-76
2021/12/21 09:25:49;;;;;;;12.73;8.75;;;;;;;-3.10;88.88;100264.59;4982548;28;20218;-76
2021/12/21 09:28:14;;;;;;;12.27;9.10;;;;;;;-3.09;88.81;100268.88;4982655;28;20220;-75
2021/12/21 09:30:40;;;;;;;12.90;9.03;;;;;;;-3.08;88.73;100270.56;4982456;28;20497;-75
2021/12/21 09:33:05;;;;;;;13.93;8.00;;;;;;;-3.08;88.83;100262.88;4983378;28;20211;-76
2021/12/21 09:35:30;;;;;;;11.07;7.43;;;;;;;-3.08;88.92;100267.16;4983387;28;20212;-76
2021/12/21 09:37:56;;;;;;;23.60;9.03;;;;;;;-3.07;88.60;100262.03;4981696;28;20228;-75
2021/12/21 09:40:25;;;;;;;12.10;8.00;;;;;;;-3.05;88.71;100267.16;4982513;28;20602;-76
2021/12/21 09:42:51;;;;;;;24.75;9.45;;;;;;;-3.04;88.62;100272.31;4985887;28;20199;-75
2021/12/21 09:45:17;;;;;;;34.45;11.70;;;;;;;-3.08;88.74;100268.00;4981121;28;20944;-76
2021/12/21 09:47:43;;;;;;;24.92;10.50;;;;;;;-3.12;88.67;100266.31;4981529;28;20219;-75
2021/12/21 09:50:12;;;;;;;14.95;9.38;;;;;;;-3.13;88.57;100268.00;4981367;28;20203;-75
2021/12/21 09:52:38;;;;;;;22.20;10.80;;;;;;;-3.11;88.56;100275.72;4979877;28;20692;-75
2021/12/21 09:55:07;;;;;;;30.95;11.10;;;;;;;-3.10;88.76;100277.44;4983669;28;20317;-77
2021/12/21 09:57:34;;;;;;;22.15;11.18;;;;;;;-3.10;88.57;100266.31;4978911;28;20302;-76
2021/12/21 09:59:59;;;;;;;17.90;9.25;;;;;;;-3.10;88.50;100277.44;4959988;28;20220;-76
2021/12/21 10:02:26;;;;;;;15.33;10.93;;;;;;;-3.09;88.78;100279.16;4962635;28;20266;-76
2021/12/21 10:04:59;;;;;;;13.73;10.48;;;;;;;-3.07;88.71;100274.88;4956598;28;20515;-74
2021/12/21 10:07:26;;;;;;;15.05;10.20;;;;;;;-3.02;88.71;100282.59;4961380;28;20709;-75
2021/12/21 10:10:08;;;;;;;19.05;11.18;;;;;;;-3.00;88.62;100270.59;4960734;28;20231;-76
2021/12/21 10:12:40;;;;;;;22.15;11.80;;;;;;;-2.97;88.62;100279.19;4963030;28;20216;-76
2021/12/21 10:15:12;;;;;;;18.33;10.43;;;;;;;-2.95;88.49;100271.47;4960606;28;20548;-76
2021/12/21 10:17:46;;;;;;;29.55;11.93;;;;;;;-2.95;88.39;100267.19;4962984;28;20231;-76
2021/12/21 10:20:13;;;;;;;28.77;9.50;;;;;;;-2.92;88.59;100267.22;4958630;28;20365;-76
2021/12/21 10:22:49;;;;;;;40.80;14.38;;;;;;;-2.92;88.17;100263.75;4962181;28;20231;-76
2021/12/21 10:25:14;;;;;;;16.05;8.73;;;;;;;-2.91;88.06;100257.78;4961146;28;20512;-76
2021/12/21 10:27:46;;;;;;;16.37;10.50;;;;;;;-2.86;88.39;100262.91;4960208;28;20675;-76
2021/12/21 10:30:13;;;;;;;25.80;13.23;;;;;;;-2.83;88.06;100255.22;4958952;28;20227;-76
2021/12/21 10:32:50;;;;;;;27.27;8.65;;;;;;;-2.91;87.67;100256.06;4962019;28;20263;-76
2021/12/21 10:35:16;;;;;;;22.15;9.70;;;;;;;-2.93;87.88;100247.47;4962367;28;20291;-75
2021/12/21 10:37:42;;;;;;;16.87;9.73;;;;;;;-2.97;87.65;100256.06;4966076;28;20311;-76
2021/12/21 10:40:22;;;;;;;23.38;10.63;;;;;;;-3.05;88.04;100255.19;4964504;28;20218;-76
2021/12/21 10:42:58;;;;;;;27.42;10.43;;;;;;;-3.11;88.28;100244.88;4961924;28;20200;-75
2021/12/21 10:45:27;;;;;;;39.42;12.95;;;;;;;-3.19;88.10;100241.44;4961495;28;20433;-77
2021/12/21 10:47:53;;;;;;;27.23;10.32;;;;;;;-3.26;88.35;100232.00;4964105;28;20224;-76
2021/12/21 10:50:18;;;;;;;19.67;10.80;;;;;;;-3.40;88.63;100240.53;4964286;28;20208;-76
2021/12/21 10:52:53;;;;;;;22.40;11.00;;;;;;;-3.41;88.49;100235.38;4964604;28;20220;-75
2021/12/21 10:55:27;;;;;;;12.32;9.15;;;;;;;-3.41;88.77;100236.22;4961825;28;20196;-75
2021/12/21 10:58:06;;;;;;;31.40;11.65;;;;;;;-3.41;88.78;100231.09;4964021;28;20349;-75
2021/12/21 11:00:32;;;;;;;17.25;10.07;;;;;;;-3.40;89.01;100235.41;4962405;28;20703;-75
2021/12/21 11:02:57;;;;;;;26.95;11.18;;;;;;;-3.34;88.92;100227.72;4964959;28;20204;-76
2021/12/21 11:05:23;;;;;;;21.07;10.80;;;;;;;-3.26;88.82;100222.59;4962181;28;20258;-77
2021/12/21 11:07:56;;;;;;;19.77;10.73;;;;;;;-3.19;89.08;100224.28;4964524;28;20632;-75
2021/12/21 11:10:26;;;;;;;16.98;10.80;;;;;;;-3.15;88.91;100215.75;4967523;28;20310;-75
2021/12/21 11:13:04;;;;;;;20.13;10.25;;;;;;;-3.10;88.66;100210.63;4972418;28;20236;-75
2021/12/21 11:15:53;;;;;;;17.95;10.93;;;;;;;-3.03;88.81;100217.47;4966454;28;20224;-75
2021/12/21 11:18:21;;;;;;;15.63;10.20;;;;;;;-2.95;88.68;100212.34;4966782;28;20708;-75
2021/12/21 11:20:50;;;;;;;13.27;9.48;;;;;;;-2.86;88.50;100211.50;4967843;28;20284;-78
2021/12/21 11:23:19;;;;;;;16.10;10.23;;;;;;;-2.77;88.24;100212.38;4962435;28;20218;-76
2021/12/21 11:25:48;;;;;;;15.88;8.90;;;;;;;-2.70;88.22;100211.53;4963201;28;20212;-75
2021/12/21 11:28:27;;;;;;;18.52;12.00;;;;;;;-2.67;87.70;100208.09;4961761;28;20709;-76
2021/12/21 11:30:58;;;;;;;16.45;10.88;;;;;;;-2.68;87.54;100198.66;4961374;28;20497;-77
2021/12/21 11:33:25;;;;;;;17.63;11.15;;;;;;;-2.66;87.66;100196.94;4960456;28;20779;-77
2021/12/21 11:38:37;;;;;;;17.75;10.68;;;;;;;-2.56;87.57;100192.66;4962799;28;20228;-76
2021/12/21 11:41:04;;;;;;;16.17;10.27;;;;;;;-2.53;86.82;100182.38;4966099;28;20196;-75
2021/12/21 11:43:39;;;;;;;16.05;10.15;;;;;;;-2.50;86.96;100180.63;4965291;28;20200;-75
2021/12/21 11:46:12;;;;;;;11.60;9.10;;;;;;;-2.42;86.92;100175.47;4961658;28;20703;-75
2021/12/21 11:48:46;;;;;;;12.18;10.10;;;;;;;-2.40;86.80;100178.03;4962448;28;20246;-76
2021/12/21 11:51:12;;;;;;;17.90;11.90;;;;;;;-2.43;86.78;100176.34;4965828;28;20223;-75
2021/12/21 11:53:39;;;;;;;13.20;8.20;;;;;;;-2.42;86.85;100174.63;4978516;28;20200;-77
2021/12/21 11:56:07;;;;;;;15.82;9.07;;;;;;;-2.42;86.89;100172.06;4975218;28;20220;-75
2021/12/21 11:58:41;;;;;;;17.10;9.00;;;;;;;-2.43;87.06;100172.91;4974659;28;20231;-76
2021/12/21 12:01:20;;;;;;;16.77;10.60;;;;;;;-2.48;86.45;100176.34;4984923;28;21064;-76
2021/12/21 12:04:06;;;;;;;15.02;9.77;;;;;;;-2.56;86.50;100169.50;4986694;28;20575;-75
2021/12/21 12:06:51;;;;;;;15.77;10.48;;;;;;;-2.57;86.82;100178.91;4990184;28;20207;-75
2021/12/21 12:09:31;;;;;;;15.77;10.15;;;;;;;-2.57;86.59;100167.78;4985903;28;20223;-75
2021/12/21 12:12:05;;;;;;;14.82;9.48;;;;;;;-2.54;86.35;100166.09;4988286;28;20227;-76
2021/12/21 12:14:31;;;;;;;17.00;10.25;;;;;;;-2.48;86.52;100168.63;4984034;28;20668;-77
2021/12/21 12:16:58;;;;;;;13.43;9.70;;;;;;;-2.41;86.31;100168.63;4985985;28;20212;-76
2021/12/21 12:19:36;;;;;;;13.77;10.70;;;;;;;-2.42;86.29;100166.91;4986014;28;20227;-76
2021/12/21 12:22:08;;;;;;;12.55;9.90;;;;;;;-2.43;86.33;100166.06;4989160;28;20219;-76
2021/12/21 12:24:38;;;;;;;17.02;11.55;;;;;;;-2.48;86.40;100166.06;4986554;28;20679;-75
2021/12/21 12:27:17;;;;;;;15.88;9.90;;;;;;;-2.47;86.39;100179.78;4990072;28;20199;-76